Alden, Wisconsin
Current Conditions -  °F | °C
As of 2:35 AM on Sunday 23 Nov 2014 (Local Time) from KRNH Reporting Station
Moderate Fog Moderate Fog  
Wind Chill:   Ceiling: 200
Heat Index:   Visibility: 0.25mi
Dew Point:   Wind: 6mph
Humidity: 100%   Direction: 170°S
Pressure: 29.47"   Gusts: NA
Location:  45.1804°N, 92.551°W
Report Text: KRNH 230835Z AUTO 17005KT 1/4SM FG OVC002 05/05 A2947 RMK AO2 T00470047
Loading
Personal Weather Stations






























Interactive Weather Map New forecast layout! Learn more

10-Day Weather Forecast

Advertisements
Track Severe Weather on mobile